createdAt,value
2022-08-10T00:00:15.798Z,53.85
2022-08-10T00:03:22.613Z,53.85
2022-08-10T00:06:24.422Z,53.95
2022-08-10T00:09:26.193Z,54.13
2022-08-10T00:12:53.572Z,54.55
2022-08-10T00:15:55.202Z,54.57
2022-08-10T00:18:58.731Z,54.66
2022-08-10T00:22:00.607Z,54.74
2022-08-10T00:25:03.061Z,54.76
2022-08-10T00:28:04.956Z,54.83
2022-08-10T00:31:06.901Z,54.95
2022-08-10T00:34:23.601Z,55.08
2022-08-10T00:37:26.306Z,55.09
2022-08-10T00:40:36.886Z,55.21
2022-08-10T00:43:39.976Z,55.44
2022-08-10T00:46:42.251Z,55.91
2022-08-10T00:49:45.731Z,56.47
2022-08-10T00:52:51.014Z,56.25
2022-08-10T00:57:10.068Z,56.48
2022-08-10T00:59:21.351Z,57.40
2022-08-10T01:02:25.096Z,57.36
2022-08-10T01:05:31.516Z,57.30
2022-08-10T01:08:41.326Z,57.38
2022-08-10T01:12:39.817Z,57.42
2022-08-10T01:15:14.470Z,57.45
2022-08-10T01:18:43.910Z,57.67
2022-08-10T01:22:02.864Z,58.60
2022-08-10T01:25:20.814Z,58.34
2022-08-10T01:28:30.966Z,58.61
2022-08-10T01:31:40.931Z,58.79
2022-08-10T01:34:46.777Z,59.54
2022-08-10T01:37:52.348Z,60.13
2022-08-10T01:41:09.709Z,60.32
2022-08-10T01:44:13.720Z,60.40
2022-08-10T01:47:44.156Z,60.15
2022-08-10T01:50:53.190Z,59.96
2022-08-10T01:54:03.667Z,59.94
2022-08-10T01:57:09.067Z,60.14
2022-08-10T02:00:12.461Z,60.66
2022-08-10T02:03:22.391Z,61.46
2022-08-10T02:06:31.124Z,61.97
2022-08-10T02:09:36.803Z,62.15
2022-08-10T02:12:40.344Z,62.55
2022-08-10T02:16:01.093Z,62.65
2022-08-10T02:19:06.358Z,62.72
2022-08-10T02:22:38.191Z,62.84
2022-08-10T02:25:41.848Z,63.28
2022-08-10T02:28:46.339Z,63.27
2022-08-10T02:31:49.655Z,63.79
2022-08-10T02:34:57.401Z,64.01
2022-08-10T02:38:03.850Z,63.74
2022-08-10T02:45:14.470Z,64.01
2022-08-10T02:45:18.652Z,63.94
2022-08-10T02:48:02.665Z,64.18
2022-08-10T02:51:11.394Z,64.58
2022-08-10T02:54:16.557Z,64.63
2022-08-10T02:57:20.275Z,64.71
2022-08-10T03:00:23.403Z,64.55
2022-08-10T03:03:26.484Z,64.63
2022-08-10T03:06:34.737Z,64.89
2022-08-10T03:09:38.626Z,64.67
2022-08-10T03:12:41.166Z,64.77
2022-08-10T03:15:50.221Z,65.01
2022-08-10T03:18:56.373Z,65.15
2022-08-10T03:22:00.094Z,65.44
2022-08-10T03:25:02.984Z,65.35
2022-08-10T03:28:05.042Z,65.61
2022-08-10T03:31:06.710Z,65.86
2022-08-10T03:34:22.230Z,65.94
2022-08-10T03:37:32.103Z,66.38
2022-08-10T03:40:46.096Z,66.44
2022-08-10T03:43:49.046Z,66.64
2022-08-10T03:46:50.936Z,66.69
2022-08-10T03:49:54.122Z,67.19
2022-08-10T03:52:57.934Z,67.40
2022-08-10T03:56:28.332Z,67.72
2022-08-10T03:59:22.023Z,67.95
2022-08-10T04:02:45.115Z,68.20
2022-08-10T04:05:45.535Z,68.39
2022-08-10T04:08:48.814Z,68.39
2022-08-10T04:11:55.626Z,68.42
2022-08-10T04:14:57.472Z,68.84
2022-08-10T04:18:05.529Z,69.01
2022-08-10T04:21:09.895Z,69.02
2022-08-10T04:24:27.083Z,68.90
2022-08-10T04:27:33.991Z,68.88
2022-08-10T04:30:36.960Z,68.98
2022-08-10T04:33:42.452Z,68.95
2022-08-10T04:36:44.960Z,68.78
2022-08-10T04:39:50.987Z,68.70
2022-08-10T04:42:53.277Z,68.62
2022-08-10T04:46:42.691Z,68.75
2022-08-10T04:49:53.983Z,68.75
2022-08-10T04:52:53.435Z,68.71
2022-08-10T04:55:58.169Z,68.59
2022-08-10T04:58:59.923Z,68.59
2022-08-10T05:02:30.312Z,68.48
2022-08-10T05:05:23.722Z,68.33
2022-08-10T05:08:26.534Z,68.29
2022-08-10T05:11:33.214Z,68.25
2022-08-10T05:14:36.785Z,68.43
2022-08-10T05:17:39.275Z,69.07
2022-08-10T05:20:41.956Z,69.08
2022-08-10T05:23:45.012Z,68.77
2022-08-10T05:26:57.215Z,68.66
2022-08-10T05:30:11.438Z,68.44
2022-08-10T05:33:13.454Z,68.10
2022-08-10T05:36:16.044Z,68.15
2022-08-10T05:39:18.708Z,68.15
2022-08-10T05:42:32.310Z,68.19
2022-08-10T05:46:19.385Z,67.98
2022-08-10T05:49:01.056Z,67.77
2022-08-10T05:52:03.891Z,68.15
2022-08-10T05:55:07.397Z,68.24
2022-08-10T05:58:10.926Z,68.38
2022-08-10T06:01:13.490Z,68.44
2022-08-10T06:04:18.480Z,68.75
2022-08-10T06:07:28.082Z,68.83
2022-08-10T06:10:32.783Z,68.60
2022-08-10T06:13:59.481Z,68.54
2022-08-10T06:17:05.965Z,67.94
2022-08-10T06:20:08.446Z,67.66
2022-08-10T06:23:11.747Z,67.57
2022-08-10T06:26:15.683Z,67.01
2022-08-10T06:29:23.016Z,66.68
2022-08-10T06:32:27.776Z,66.63
2022-08-10T06:35:32.002Z,65.81
2022-08-10T06:38:37.448Z,65.29
2022-08-10T06:41:57.876Z,65.06
2022-08-10T06:45:06.219Z,65.42
2022-08-10T06:48:11.195Z,65.09
2022-08-10T06:51:14.525Z,65.08
2022-08-10T06:54:18.241Z,64.51
2022-08-10T06:57:21.398Z,64.91
2022-08-10T07:00:32.711Z,65.36
2022-08-10T07:03:38.939Z,65.25
2022-08-10T07:06:42.900Z,65.25
2022-08-10T07:09:45.785Z,65.18
2022-08-10T07:12:54.395Z,64.74
2022-08-10T07:15:59.938Z,64.65
2022-08-10T07:19:03.023Z,64.15
2022-08-10T07:22:05.626Z,64.14
2022-08-10T07:25:08.921Z,63.95
2022-08-10T07:28:11.497Z,63.97
2022-08-10T07:31:54.433Z,63.41
2022-08-10T07:34:39.601Z,63.10
2022-08-10T07:37:44.962Z,61.75
2022-08-10T07:40:47.640Z,61.71
2022-08-10T07:43:51.023Z,61.89
2022-08-10T07:46:56.902Z,61.36
2022-08-10T07:50:02.125Z,61.47
2022-08-10T07:53:04.447Z,60.94
2022-08-10T07:56:16.941Z,60.68
2022-08-10T07:59:32.495Z,60.56
2022-08-10T08:02:37.549Z,60.76
2022-08-10T08:05:59.205Z,59.66
2022-08-10T08:09:03.626Z,59.98
2022-08-10T08:12:06.787Z,59.80
2022-08-10T08:16:15.888Z,59.68
2022-08-10T08:18:36.934Z,59.68
2022-08-10T08:24:10.408Z,59.01
2022-08-10T08:25:01.526Z,59.02
2022-08-10T08:28:04.934Z,59.19
2022-08-10T08:31:07.869Z,59.39
2022-08-10T08:34:14.796Z,58.35
2022-08-10T08:38:27.690Z,58.11
2022-08-10T08:40:45.097Z,58.05
2022-08-10T08:43:56.133Z,58.17
2022-08-10T08:48:00.993Z,57.16
2022-08-10T08:50:37.150Z,56.69
2022-08-10T08:54:02.199Z,55.33
2022-08-10T08:57:11.383Z,54.80
2022-08-10T09:00:16.149Z,54.72
2022-08-10T09:03:28.441Z,54.25
2022-08-10T09:06:42.074Z,53.77
2022-08-10T09:09:59.553Z,53.03
2022-08-10T09:13:05.041Z,53.03
2022-08-10T09:16:17.557Z,52.29
2022-08-10T09:19:34.955Z,51.47
2022-08-10T09:22:43.198Z,51.46
2022-08-10T09:25:48.593Z,51.70
2022-08-10T09:29:12.249Z,50.31
2022-08-10T09:36:16.445Z,50.57
2022-08-10T09:36:20.493Z,50.17
2022-08-10T09:40:56.169Z,50.31
2022-08-10T09:42:42.881Z,48.97
2022-08-10T09:45:47.947Z,48.09
2022-08-10T09:48:57.402Z,48.23
2022-08-10T09:52:07.274Z,47.82
2022-08-10T09:55:17.220Z,48.07
2022-08-10T09:58:34.681Z,47.56
2022-08-10T10:02:00.448Z,47.25
2022-08-10T10:05:06.907Z,46.92
2022-08-10T10:08:13.512Z,46.46
2022-08-10T10:11:21.194Z,46.49
2022-08-10T10:14:27.907Z,46.82
2022-08-10T10:17:38.292Z,46.40
2022-08-10T10:20:42.263Z,46.22
2022-08-10T10:24:19.754Z,45.75
2022-08-10T10:27:20.642Z,45.88
2022-08-10T10:30:24.239Z,45.23
2022-08-10T10:33:33.010Z,44.33
2022-08-10T10:36:35.390Z,44.10
2022-08-10T10:39:40.198Z,44.73
2022-08-10T10:42:49.792Z,44.24
2022-08-10T10:45:57.807Z,44.24
2022-08-10T10:49:08.284Z,43.58
2022-08-10T10:52:19.834Z,43.73
2022-08-10T10:55:26.319Z,43.52
2022-08-10T10:58:34.107Z,43.24
2022-08-10T11:01:41.973Z,43.22
2022-08-10T11:04:47.011Z,43.16
2022-08-10T11:07:53.352Z,42.17
2022-08-10T11:10:56.492Z,41.96
2022-08-10T11:14:25.621Z,42.05
2022-08-10T11:17:33.217Z,42.71
2022-08-10T11:20:38.691Z,41.94
2022-08-10T11:23:44.793Z,41.28
2022-08-10T11:27:08.958Z,42.00
2022-08-10T11:30:24.381Z,41.24
2022-08-10T11:33:30.701Z,41.65
2022-08-10T11:36:41.816Z,41.12
2022-08-10T11:39:48.671Z,41.34
2022-08-10T11:42:58.071Z,41.33
2022-08-10T11:46:07.987Z,41.19
2022-08-10T11:49:13.220Z,40.62
2022-08-10T11:52:16.951Z,40.97
2022-08-10T11:55:19.783Z,40.76
2022-08-10T11:58:40.975Z,39.94
2022-08-10T12:01:45.624Z,40.29
2022-08-10T12:04:51.106Z,39.28
2022-08-10T12:10:07.707Z,39.49
2022-08-10T12:11:24.143Z,39.71
2022-08-10T12:14:30.851Z,39.15
2022-08-10T12:17:35.197Z,39.57
2022-08-10T12:20:39.019Z,40.09
2022-08-10T12:23:43.746Z,39.95
2022-08-10T12:26:50.038Z,39.85
2022-08-10T12:29:57.509Z,39.90
2022-08-10T12:33:03.339Z,39.43
2022-08-10T12:36:18.292Z,39.20
2022-08-10T12:39:22.308Z,38.54
2022-08-10T12:42:38.729Z,39.23
2022-08-10T12:45:49.000Z,39.76
2022-08-10T12:48:54.545Z,40.20
2022-08-10T12:52:01.334Z,38.88
2022-08-10T12:55:07.227Z,39.11
2022-08-10T12:58:59.843Z,38.78
2022-08-10T13:02:09.919Z,38.88
2022-08-10T13:04:59.574Z,38.66
2022-08-10T13:08:27.057Z,38.13
2022-08-10T13:12:38.579Z,38.43
2022-08-10T13:14:54.026Z,38.27
2022-08-10T13:17:58.158Z,38.22
2022-08-10T13:21:04.599Z,38.32
2022-08-10T13:24:25.444Z,37.85
2022-08-10T13:28:02.613Z,37.73
2022-08-10T13:30:51.495Z,37.62
2022-08-10T13:34:40.303Z,37.72
2022-08-10T13:37:23.135Z,37.03
2022-08-10T13:40:25.790Z,37.52
2022-08-10T13:43:27.902Z,37.28
2022-08-10T13:46:29.979Z,36.49
2022-08-10T13:49:33.076Z,37.10
2022-08-10T13:52:36.952Z,36.81
2022-08-10T13:55:54.538Z,36.27
2022-08-10T13:58:58.862Z,37.14
2022-08-10T14:02:01.824Z,36.54
2022-08-10T14:05:04.985Z,36.20
2022-08-10T14:08:12.431Z,36.11
2022-08-10T14:11:16.192Z,35.71
2022-08-10T14:14:18.736Z,35.58
2022-08-10T14:17:21.915Z,35.35
2022-08-10T14:20:26.728Z,35.87
2022-08-10T14:23:32.493Z,35.95
2022-08-10T14:26:34.980Z,35.78
2022-08-10T14:29:41.602Z,36.01
2022-08-10T14:32:45.552Z,35.43
2022-08-10T14:36:23.789Z,35.42
2022-08-10T14:39:12.578Z,35.44
2022-08-10T14:42:27.284Z,35.34
2022-08-10T14:45:31.716Z,35.44
2022-08-10T14:48:34.753Z,34.29
2022-08-10T14:51:44.446Z,35.80
2022-08-10T14:54:49.767Z,35.46
2022-08-10T14:58:17.040Z,35.12
2022-08-10T15:01:19.476Z,35.05
2022-08-10T15:04:23.573Z,35.96
2022-08-10T15:07:32.713Z,35.54
2022-08-10T15:10:36.797Z,35.29
2022-08-10T15:13:44.883Z,35.58
2022-08-10T15:17:08.443Z,34.84
2022-08-10T15:20:20.365Z,35.49
2022-08-10T15:23:29.753Z,35.88
2022-08-10T15:26:35.857Z,36.33
2022-08-10T15:29:57.212Z,36.58
2022-08-10T15:34:02.103Z,35.76
2022-08-10T15:37:36.272Z,35.97
2022-08-10T15:40:31.176Z,35.86
2022-08-10T15:43:44.720Z,35.61
2022-08-10T15:46:49.818Z,36.16
2022-08-10T15:49:56.076Z,35.73
2022-08-10T15:53:02.790Z,36.41
2022-08-10T15:56:08.123Z,35.92
2022-08-10T15:59:25.126Z,36.44
2022-08-10T16:02:31.354Z,36.64
2022-08-10T16:06:00.123Z,36.47
2022-08-10T16:10:23.381Z,36.15
2022-08-10T16:12:29.133Z,36.47
2022-08-10T16:15:35.572Z,36.77
2022-08-10T16:18:39.649Z,36.80
2022-08-10T16:21:42.582Z,37.34
2022-08-10T16:24:47.622Z,36.98
2022-08-10T16:27:49.489Z,36.64
2022-08-10T16:30:54.124Z,37.21
2022-08-10T16:33:58.031Z,37.74
2022-08-10T16:37:01.647Z,36.70
2022-08-10T16:40:06.626Z,36.94
2022-08-10T16:43:12.430Z,36.85
2022-08-10T16:46:21.644Z,37.14
2022-08-10T16:49:24.170Z,37.01
2022-08-10T16:52:28.578Z,37.52
2022-08-10T16:55:49.221Z,37.88
2022-08-10T16:58:54.096Z,38.34
2022-08-10T17:01:58.348Z,38.66
2022-08-10T17:05:00.833Z,37.72
2022-08-10T17:08:04.311Z,38.28
2022-08-10T17:11:06.318Z,38.53
2022-08-10T17:14:09.127Z,38.20
2022-08-10T17:17:18.040Z,38.37
2022-08-10T17:20:30.823Z,38.32
2022-08-10T17:23:35.492Z,38.61
2022-08-10T17:26:37.929Z,38.95
2022-08-10T17:29:57.817Z,38.69
2022-08-10T17:33:06.537Z,38.76
2022-08-10T17:36:08.635Z,38.96
2022-08-10T17:39:12.907Z,39.51
2022-08-10T17:42:20.767Z,39.40
2022-08-10T17:45:48.801Z,39.51
2022-08-10T17:48:47.751Z,39.23
2022-08-10T17:51:51.194Z,39.61
2022-08-10T17:54:57.080Z,39.65
2022-08-10T17:58:02.107Z,39.68
2022-08-10T18:01:41.346Z,39.71
2022-08-10T18:04:31.992Z,39.88
2022-08-10T18:07:40.795Z,40.17
2022-08-10T18:10:43.161Z,40.31
2022-08-10T18:13:55.830Z,41.15
2022-08-10T18:16:59.313Z,40.91
2022-08-10T18:33:32.544Z,41.78
2022-08-10T18:36:42.128Z,42.60
2022-08-10T18:39:48.572Z,42.09
2022-08-10T18:42:53.717Z,42.60
2022-08-10T18:45:59.405Z,42.72
2022-08-10T18:55:14.326Z,43.73
2022-08-10T18:58:46.560Z,43.32
2022-08-10T19:02:04.713Z,43.71
2022-08-10T19:05:31.061Z,43.42
2022-08-10T19:09:46.040Z,43.60
2022-08-10T19:16:07.610Z,45.16
2022-08-10T19:19:32.060Z,45.07
2022-08-10T19:22:46.269Z,45.44
2022-08-10T19:26:41.624Z,45.12
2022-08-10T19:30:09.819Z,45.36
2022-08-10T19:33:22.519Z,45.41
2022-08-10T19:36:34.843Z,45.71
2022-08-10T19:39:50.855Z,45.20
2022-08-10T19:43:09.253Z,45.85
2022-08-10T19:46:18.067Z,45.98
2022-08-10T19:49:37.654Z,46.29
2022-08-10T19:52:49.559Z,46.10
2022-08-10T19:56:30.647Z,46.76
2022-08-10T20:00:17.275Z,46.61
2022-08-10T20:03:13.200Z,47.16
2022-08-10T20:06:22.529Z,47.12
2022-08-10T20:09:34.416Z,47.36
2022-08-10T20:12:45.713Z,46.71
2022-08-10T20:15:59.083Z,46.15
2022-08-10T20:19:09.826Z,46.40
2022-08-10T20:22:28.944Z,46.21
2022-08-10T20:25:34.311Z,46.46
2022-08-10T20:28:41.700Z,46.82
2022-08-10T20:31:54.359Z,47.69
2022-08-10T20:35:04.920Z,47.79
2022-08-10T20:38:10.934Z,47.68
2022-08-10T20:41:24.655Z,48.10
2022-08-10T20:44:41.941Z,47.17
2022-08-10T20:47:54.163Z,48.11
2022-08-10T20:51:03.491Z,48.51
2022-08-10T20:54:12.229Z,48.53
2022-08-10T20:57:55.647Z,48.69
2022-08-10T21:01:05.992Z,48.77
2022-08-10T21:04:19.144Z,48.48
2022-08-10T21:08:01.358Z,48.66
2022-08-10T21:11:16.067Z,47.91
2022-08-10T21:14:38.814Z,47.76
2022-08-10T21:17:51.430Z,48.27
2022-08-10T21:25:07.435Z,48.82
2022-08-10T21:28:49.811Z,49.19
2022-08-10T21:32:07.130Z,48.97
2022-08-10T21:35:37.547Z,49.52
2022-08-10T21:38:51.755Z,49.24
2022-08-10T21:42:37.671Z,49.11
2022-08-10T21:46:16.321Z,48.97
2022-08-10T21:49:53.264Z,49.11
2022-08-10T21:53:43.783Z,49.47
2022-08-10T21:57:21.544Z,49.76
2022-08-10T22:00:44.867Z,50.03
2022-08-10T22:04:09.763Z,50.28
2022-08-10T22:07:38.482Z,50.08
2022-08-10T22:11:06.794Z,50.32
2022-08-10T22:14:33.541Z,50.85
2022-08-10T22:18:10.885Z,50.69
2022-08-10T22:21:48.529Z,50.67
2022-08-10T22:25:23.035Z,50.56
2022-08-10T22:28:43.706Z,50.99
2022-08-10T22:32:18.820Z,51.04
2022-08-10T22:36:11.360Z,51.42
2022-08-10T22:40:10.228Z,51.95
2022-08-10T22:43:35.776Z,51.56
2022-08-10T22:47:00.569Z,51.33
2022-08-10T22:50:07.780Z,50.99
2022-08-10T22:53:27.535Z,51.67
2022-08-10T22:56:56.064Z,50.33
2022-08-10T22:59:59.250Z,49.82
2022-08-10T23:03:12.033Z,50.02
2022-08-10T23:06:19.762Z,50.04
2022-08-10T23:09:23.940Z,49.83
2022-08-10T23:12:35.654Z,49.76
2022-08-10T23:15:59.145Z,50.16
2022-08-10T23:19:10.153Z,49.52
2022-08-10T23:22:15.526Z,50.44
2022-08-10T23:25:29.959Z,50.46
2022-08-10T23:28:58.093Z,50.91
2022-08-10T23:32:07.412Z,51.32
2022-08-10T23:36:27.798Z,51.39
2022-08-10T23:38:41.467Z,50.83
2022-08-10T23:41:45.193Z,50.82
2022-08-10T23:45:00.293Z,50.74
2022-08-10T23:48:04.119Z,50.42
2022-08-10T23:51:16.069Z,50.87
2022-08-10T23:54:27.549Z,50.75
2022-08-10T23:57:32.631Z,50.57
